deformed-offering

Nearby METAR Reports

 

KNUQ - Moffett Nas/Mtn, California, USA
Distance from station: N 9mi, 14km
Updated: Thu, 23-Feb-2017 7:56am PST
Clear
Clear
 Wind from WSW
Wind: WSW 6 mph , 9 km/h
Temperature: 45°F , 7°C
Wind Chill: 42°F , 6°C
Dew Point: 36°F , 2°C
Humidity: 71%
Barometer: 30.26 inHg , 1024.7 hPa
Clouds: Clear
Visibility: 10 miles , 16 km
2017/02/23 15:56 KNUQ 231556Z AUTO 25005KT 10SM CLR 07/02 A3026 RMK AO2 SLP248 T00670017
KSJC - San Jose, California, USA
Distance from station: NE 9mi, 14km
Updated: Thu, 23-Feb-2017 7:53am PST
Few Clouds
Few Clouds
 Wind from calm
Wind: Calm
Temperature: 45°F , 7°C
Dew Point: 36°F , 2°C
Humidity: 71%
Barometer: 30.25 inHg , 1024.4 hPa
Clouds: Few Clouds
Visibility: 10 miles , 16 km
Cloud details: Few Clouds 3500 ft
2017/02/23 15:53 KSJC 231553Z 00000KT 10SM FEW035 07/02 A3025 RMK AO2 SLP242 T00670022
 
KRHV - San Jose/Reid, California, USA
Distance from station: ENE 12mi, 19km
Updated: Thu, 23-Feb-2017 7:55am PST
Few Clouds
Few Clouds
 Wind from calm
Wind: Calm
Temperature: 41°F , 5°C
Dew Point: 36°F , 2°C
Humidity: 81%
Barometer: 30.27 inHg , 1025.1 hPa
Clouds: Few Clouds
Visibility: 10 miles , 16 km
Cloud details: Few Clouds 3000 ft
2017/02/23 15:55 KRHV 231555Z 00000KT 10SM FEW030 05/02 A3027
KPAO - Palo Alto, California, USA
Distance from station: NNW 14mi, 23km
Updated: Thu, 23-Feb-2017 7:47am PST
Few Clouds
Few Clouds
 Wind from NW
Wind: NW 5 mph , 7 km/h
Temperature: 46°F , 8°C
Wind Chill: 44°F , 7°C
Dew Point: 34°F , 1°C
Humidity: 62%
Barometer: 30.24 inHg , 1024 hPa
Clouds: Few Clouds
Visibility: 10 miles , 16 km
Cloud details: Few Clouds 2500 ft
2017/02/23 15:47 KPAO 231547Z 31004KT 10SM FEW025 08/01 A3024
 
KSQL - San Carlos Airpo, California, USA
Distance from station: NW 21mi, 34km
Updated: Thu, 23-Feb-2017 6:55am PST
NOT Current
Clear
Clear
 Wind from WNW
Wind: WNW 8 mph , 13 km/h
Temperature: 45°F , 7°C
Wind Chill: 41°F , 5°C
Dew Point: 32°F , 0°C
Humidity: 61%
Barometer: 30.22 inHg , 1023.4 hPa
Clouds: Clear
Visibility: 10 miles , 16 km
2017/02/23 14:55 KSQL 231455Z AUTO 29007KT 10SM CLR 07/00 A3022 RMK AO2
KE16 - San Martin, California, USA
Distance from station: ESE 27mi, 43km
Updated: Thu, 23-Feb-2017 7:55am PST
Clear
Clear
 Wind from NNW
Wind: NNW 9 mph , 15 km/h
Temperature: 41°F , 5°C
Wind Chill: 35°F , 2°C
Dew Point: 34°F , 1°C
Humidity: 76%
Barometer: 30.24 inHg , 1024 hPa
Clouds: Clear
Visibility: 10 miles , 16 km
2017/02/23 15:55 KE16 231555Z AUTO 34008KT 10SM CLR 05/01 A3024 RMK AO2
 
KWVI - Watsonville, California, USA
Distance from station: SSE 27mi, 44km
Updated: Thu, 23-Feb-2017 7:53am PST
Clear
Clear
 Wind from E
Wind: E 3 mph , 6 km/h
Temperature: 39°F , 4°C
Dew Point: 37°F , 3°C
Humidity: 93%
Barometer: 30.24 inHg , 1024 hPa
Clouds: Clear
Visibility: 10 miles , 16 km
2017/02/23 15:53 KWVI 231553Z AUTO 08003KT 10SM CLR 04/03 A3024 RMK AO2 SLP240 T00440033
KHWD - Hayward, California, USA
Distance from station: N 28mi, 44km
Updated: Thu, 23-Feb-2017 7:54am PST
Clear
Clear
 Wind from calm
Wind: Calm
Temperature: 43°F , 6°C
Dew Point: 30°F , -1°C
Humidity: 61%
Barometer: 30.24 inHg , 1024 hPa
Clouds: Clear
Visibility: 10 miles , 16 km
2017/02/23 15:54 KHWD 231554Z 00000KT 10SM CLR 06/M01 A3024 RMK AO2 SLP250 T00561006
 
KSFO - San Francisco, California, USA
Distance from station: NW 30mi, 49km
Updated: Thu, 23-Feb-2017 7:56am PST
Few Clouds
Few Clouds
 Wind from WNW
Wind: WNW 12 mph , 19 km/h
Temperature: 46°F , 8°C
Wind Chill: 40°F , 4°C
Dew Point: 34°F , 1°C
Humidity: 62%
Barometer: 30.24 inHg , 1024 hPa
Clouds: Few Clouds
Visibility: 10 miles , 16 km
Cloud details: Few Clouds 3000 ft
2017/02/23 15:56 KSFO 231556Z 30010KT 10SM FEW030 08/01 A3024 RMK AO2 SLP239 T00780006
KHAF - Half Moon Bay, California, USA
Distance from station: WNW 31mi, 50km
Updated: Thu, 23-Feb-2017 7:55am PST
Mostly Cloudy
Mostly Cloudy
 Wind from N
Wind: N 14 mph , 22 km/h, Gust: 17 mph , 28 km/h
Temperature: 46°F , 8°C
Wind Chill: 40°F , 4°C
Dew Point: 37°F , 3°C
Humidity: 71%
Barometer: 30.25 inHg , 1024.4 hPa
Clouds: Mostly Cloudy
Visibility: 10 miles , 16 km
Cloud details: Partly Cloudy 2900 ft
Mostly Cloudy 3700 ft
Mostly Cloudy 4700 ft
2017/02/23 15:55 KHAF 231555Z AUTO 35012G15KT 10SM SCT029 BKN037 BKN047 08/03 A3025 RMK AO2
 
KOAK - Oakland, California, USA
Distance from station: NNW 31mi, 50km
Updated: Thu, 23-Feb-2017 7:53am PST
Few Clouds
Few Clouds
 Wind from NNE
Wind: NNE 5 mph , 7 km/h
Temperature: 45°F , 7°C
Wind Chill: 42°F , 6°C
Dew Point: 36°F , 2°C
Humidity: 71%
Barometer: 30.25 inHg , 1024.4 hPa
Clouds: Few Clouds
Visibility: 10 miles , 16 km
Cloud details: Few Clouds 1500 ft
2017/02/23 15:53 KOAK 231553Z 03004KT 10SM FEW015 07/02 A3025 RMK AO2 SLP241 T00720017
KLVK - Livermore, California, USA
Distance from station: NNE 31mi, 51km
Updated: Thu, 23-Feb-2017 7:53am PST
Clear
Clear
 Wind from calm
Wind: Calm
Temperature: 39°F , 4°C
Dew Point: 32°F , 0°C
Humidity: 75%
Barometer: 30.22 inHg , 1023.4 hPa
Clouds: Clear
Visibility: 10 miles , 16 km
2017/02/23 15:53 KLVK 231553Z 00000KT 10SM CLR 04/00 A3022 RMK AO2 SLP235 T00440000
 
KCVH - Hollister Muni, California, USA
Distance from station: SE 42mi, 68km
Updated: Thu, 23-Feb-2017 7:55am PST
Clear
Clear
 Wind from SE
Wind: SE 6 mph , 9 km/h
Temperature: 37°F , 3°C
Wind Chill: 32°F , 0°C
Dew Point: 34°F , 1°C
Humidity: 87%
Barometer: 30.25 inHg , 1024.4 hPa
Clouds: Clear
Visibility: 10 miles , 16 km
2017/02/23 15:55 KCVH 231555Z AUTO 14005KT 10SM CLR 03/01 A3025 RMK AO1
KSNS - Salinas, California, USA
Distance from station: SSE 48mi, 77km
Updated: Thu, 23-Feb-2017 7:53am PST
Clear
Clear
 Wind from calm
Wind: Calm
Temperature: 41°F , 5°C
Dew Point: 37°F , 3°C
Humidity: 87%
Barometer: 30.24 inHg , 1024 hPa
Clouds: Clear
Visibility: 10 miles , 16 km
2017/02/23 15:53 KSNS 231553Z 00000KT 10SM CLR 05/03 A3024 RMK AO2 SLP251 T00500028
 
KMRY - Monterey, California, USA
Distance from station: SSE 49mi, 78km
Updated: Thu, 23-Feb-2017 7:54am PST
Few Clouds
Few Clouds
 Wind from E
Wind: E 3 mph , 6 km/h
Temperature: 43°F , 6°C
Dew Point: 37°F , 3°C
Humidity: 81%
Barometer: 30.25 inHg , 1024.4 hPa
Clouds: Few Clouds
Visibility: 10 miles , 16 km
Cloud details: Few Clouds 3200 ft
2017/02/23 15:54 KMRY 231554Z 08003KT 10SM FEW032 06/03 A3025 RMK AO2 SLP256 T00610033
KCCR - Concord, California, USA
Distance from station: N 50mi, 81km
Updated: Thu, 23-Feb-2017 7:53am PST
Clear
Clear
 Wind from calm
Wind: Calm
Temperature: 43°F , 6°C
Dew Point: 34°F , 1°C
Humidity: 71%
Barometer: 30.24 inHg , 1024 hPa
Clouds: Clear
Visibility: 10 miles , 16 km
2017/02/23 15:53 KCCR 231553Z 00000KT 10SM CLR 06/01 A3024 RMK AO2 SLP225 T00560006
deformed-offering